Time;durP1;ratioP1;P1;durP2;ratioP2;P2;SDS_P1;SDS_P2;PMS_P1;PMS_P2;Temp;Humidity;BMP_temperature;BMP_pressure;BME280_temperature;BME280_humidity;BME280_pressure;Samples;Min_cycle;Max_cycle;Signal;HPM_P1;HPM_P2
2021/07/05 00:01:21;;;;;;;;;;;;;;;16.20;85.96;100893.16;5076926;28;20036;-40
2021/07/05 00:03:46;;;;;;;9.20;2.40;;;;;;;16.07;86.71;100883.56;5077164;28;19904;-40
2021/07/05 00:06:12;;;;;;;2.92;2.40;;;;;;;16.01;86.03;100883.84;5076936;28;20259;-40
2021/07/05 00:08:37;;;;;;;4.10;2.30;;;;;;;16.03;86.53;100881.66;5076320;28;20026;-40
2021/07/05 00:11:03;;;;;;;4.80;2.38;;;;;;;16.02;86.65;100886.28;5077186;28;20074;-40
2021/07/05 00:13:30;;;;;;;;;;;;;;;16.16;85.88;100887.44;5077209;28;20056;-40
2021/07/05 00:15:55;;;;;;;3.67;2.45;;;;;;;15.94;86.51;100886.78;5076424;28;19908;-40
2021/07/05 00:18:21;;;;;;;3.78;2.45;;;;;;;15.92;86.42;100894.41;5076125;28;20031;-40
2021/07/05 00:20:47;;;;;;;4.05;2.63;;;;;;;15.83;86.64;100885.09;5076391;28;20342;-40
2021/07/05 00:23:13;;;;;;;4.72;2.55;;;;;;;15.84;86.70;100881.28;5076365;28;20020;-40
2021/07/05 00:25:39;;;;;;;4.45;2.88;;;;;;;15.86;87.36;100879.09;5077104;28;20090;-40
2021/07/05 00:28:05;;;;;;;3.33;2.80;;;;;;;15.78;86.84;100874.97;5075899;28;20024;-40
2021/07/05 00:30:32;;;;;;;3.35;2.60;;;;;;;15.80;86.65;100880.97;5076218;28;20025;-40
2021/07/05 00:32:57;;;;;;;4.72;2.20;;;;;;;15.75;86.79;100877.41;5076141;28;20082;-40
2021/07/05 00:35:24;;;;;;;3.47;2.70;;;;;;;15.72;87.08;100875.22;5075911;28;20362;-40
2021/07/05 00:37:50;;;;;;;2.97;2.33;;;;;;;15.76;87.20;100877.13;5075984;28;20051;-40
2021/07/05 00:40:16;;;;;;;4.50;2.55;;;;;;;15.67;86.99;100862.41;5076111;28;20453;-40
2021/07/05 00:42:42;;;;;;;5.10;2.55;;;;;;;15.62;87.70;100870.50;5075935;28;20040;-40
2021/07/05 00:45:09;;;;;;;3.22;2.30;;;;;;;15.67;87.16;100868.66;5076755;28;20376;-40
2021/07/05 00:47:35;;;;;;;2.65;2.40;;;;;;;15.67;86.75;100865.94;5075861;28;20020;-40
2021/07/05 00:50:00;;;;;;;5.47;2.45;;;;;;;15.62;86.98;100848.72;5075627;28;20028;-40
2021/07/05 00:52:27;;;;;;;3.95;2.50;;;;;;;15.54;87.55;100852.75;5075834;28;20032;-40
2021/07/05 00:54:53;;;;;;;4.53;2.35;;;;;;;15.53;87.19;100861.19;5076609;28;20329;-40
2021/07/05 00:57:23;;;;;;;4.38;2.58;;;;;;;15.50;87.63;100856.25;5075870;28;20024;-40
2021/07/05 00:59:55;;;;;;;7.25;2.30;;;;;;;15.47;87.39;100857.63;5075607;28;20035;-40
2021/07/05 01:02:22;;;;;;;3.78;2.60;;;;;;;15.44;87.50;100860.84;5075623;28;20017;-40
2021/07/05 01:04:49;;;;;;;2.78;2.47;;;;;;;15.40;87.67;100860.56;5074792;28;20115;-40
2021/07/05 01:07:15;;;;;;;6.15;2.45;;;;;;;15.40;87.94;100862.47;5075538;28;20029;-40
2021/07/05 01:09:42;;;;;;;5.22;2.42;;;;;;;15.40;87.48;100866.00;5076284;28;20031;-40
2021/07/05 01:12:08;;;;;;;3.08;2.42;;;;;;;15.35;88.04;100862.44;5075397;28;20084;-40
2021/07/05 01:14:34;;;;;;;4.10;2.58;;;;;;;15.35;87.92;100876.06;5075617;28;20024;-40
2021/07/05 01:17:00;;;;;;;2.67;1.98;;;;;;;15.32;87.70;100877.38;5075262;28;20101;-40
2021/07/05 01:19:26;;;;;;;4.53;2.70;;;;;;;15.44;87.76;100883.47;5075283;28;20032;-40
2021/07/05 01:21:52;;;;;;;4.05;2.28;;;;;;;15.43;87.97;100883.75;5075644;28;20048;-40
2021/07/05 01:24:17;;;;;;;6.28;2.85;;;;;;;15.36;88.29;100880.41;5074817;28;20491;-40
2021/07/05 01:26:43;;;;;;;5.00;2.42;;;;;;;15.38;88.26;100872.81;5074910;28;20024;-40
2021/07/05 01:29:09;;;;;;;2.83;2.42;;;;;;;15.45;88.23;100876.13;5074811;28;20024;-40
2021/07/05 01:31:35;;;;;;;4.93;2.58;;;;;;;15.47;87.97;100873.97;5074770;28;20472;-40
2021/07/05 01:34:01;;;;;;;5.75;2.13;;;;;;;15.52;87.96;100867.69;5074905;28;20099;-40
2021/07/05 01:36:27;;;;;;;3.40;2.63;;;;;;;15.43;88.34;100861.94;5075162;28;20107;-40
2021/07/05 01:38:52;;;;;;;3.55;2.53;;;;;;;15.53;87.73;100855.75;5075470;28;20039;-40
2021/07/05 01:41:19;;;;;;;4.68;2.63;;;;;;;15.60;87.95;100862.56;5075665;28;20028;-40
2021/07/05 01:43:44;;;;;;;3.22;2.30;;;;;;;15.60;88.11;100859.84;5074981;28;20021;-40
2021/07/05 01:46:10;;;;;;;3.53;3.05;;;;;;;15.69;87.48;100860.22;5074760;28;20047;-40
2021/07/05 01:48:35;;;;;;;2.80;2.47;;;;;;;15.66;87.22;100866.19;5075474;28;20425;-40
2021/07/05 01:51:01;;;;;;;5.00;2.30;;;;;;;15.65;87.69;100862.63;5075461;28;20035;-40
2021/07/05 01:53:26;;;;;;;3.78;2.67;;;;;;;15.66;87.61;100875.22;5074343;28;20123;-40
2021/07/05 01:55:53;;;;;;;;;;;;;;;15.78;87.06;100872.25;5074627;28;20067;-40
2021/07/05 01:58:18;;;;;;;3.63;2.50;;;;;;;15.60;87.75;100862.56;5074419;28;19912;-40
2021/07/05 02:00:46;;;;;;;4.10;2.67;;;;;;;15.63;87.71;100881.16;5074243;28;20028;-40
2021/07/05 02:03:13;;;;;;;3.10;2.53;;;;;;;15.63;88.13;100875.72;5074594;28;20437;-40
2021/07/05 02:05:39;;;;;;;2.53;2.33;;;;;;;15.64;88.25;100861.00;5074110;28;20024;-40
2021/07/05 02:08:05;;;;;;;4.05;2.55;;;;;;;15.62;88.12;100860.44;5075094;28;20361;-40
2021/07/05 02:10:34;;;;;;;4.10;2.78;;;;;;;15.64;88.28;100869.19;5074515;28;20024;-40
2021/07/05 02:13:10;;;;;;;3.50;2.78;;;;;;;15.70;88.30;100876.28;5074777;28;20024;-40
2021/07/05 02:15:37;;;;;;;6.13;2.75;;;;;;;15.70;88.19;100868.13;5074488;28;20020;-40
2021/07/05 02:18:02;;;;;;;3.28;2.67;;;;;;;15.68;88.70;100864.03;5074056;28;20388;-40
2021/07/05 02:20:28;;;;;;;4.80;2.83;;;;;;;15.75;88.94;100869.22;5074625;28;20048;-40
2021/07/05 02:22:54;;;;;;;4.65;3.33;;;;;;;15.76;88.45;100871.69;5074082;28;20130;-40
2021/07/05 02:25:23;;;;;;;3.45;2.83;;;;;;;15.80;88.56;100874.72;5073045;28;20028;-40
2021/07/05 02:27:48;;;;;;;3.70;3.40;;;;;;;15.78;89.04;100874.16;5074765;28;20345;-40
2021/07/05 02:30:18;;;;;;;5.97;3.70;;;;;;;15.80;89.15;100877.44;5074565;28;20028;-40
2021/07/05 02:32:46;;;;;;;5.93;3.95;;;;;;;15.78;89.31;100874.97;5074489;28;20029;-40
2021/07/05 02:35:13;;;;;;;6.68;3.70;;;;;;;15.75;89.09;100874.69;5074421;28;20020;-40
2021/07/05 02:37:40;;;;;;;4.90;3.83;;;;;;;15.76;89.03;100885.31;5073978;28;20031;-40
2021/07/05 02:40:08;;;;;;;8.95;4.50;;;;;;;15.69;89.16;100880.13;5073895;28;20074;-40
2021/07/05 02:42:34;;;;;;;3.83;3.42;;;;;;;15.64;87.66;100895.63;5073972;28;20024;-40
2021/07/05 02:45:03;;;;;;;7.57;3.53;;;;;;;15.63;88.57;100899.41;5074323;28;20017;-40
2021/07/05 02:47:29;;;;;;;5.80;3.30;;;;;;;15.61;88.32;100893.38;5073647;28;20058;-40
2021/07/05 02:49:54;;;;;;;7.40;3.13;;;;;;;15.53;87.88;100886.53;5074253;28;20085;-40
2021/07/05 02:52:19;;;;;;;;;;;;;;;15.59;87.18;100899.09;5074135;28;20109;-40
2021/07/05 02:54:44;;;;;;;4.93;2.63;;;;;;;15.36;86.84;100900.28;5074184;28;19904;-39
2021/07/05 02:57:28;;;;;;;10.52;2.55;;;;;;;15.31;86.83;100900.25;5073315;28;20024;-39
2021/07/05 02:59:56;;;;;;;7.90;2.45;;;;;;;15.24;86.74;100901.59;5074149;28;20028;-40
2021/07/05 03:02:21;;;;;;;4.78;2.22;;;;;;;15.08;87.46;100892.44;5073573;28;20028;-40
2021/07/05 03:04:46;;;;;;;4.50;2.53;;;;;;;15.13;87.14;100906.94;5073630;28;20470;-40
2021/07/05 03:07:12;;;;;;;4.18;2.30;;;;;;;15.13;88.04;100911.59;5073269;28;20460;-39
2021/07/05 03:09:37;;;;;;;4.55;2.60;;;;;;;15.00;87.88;100906.56;5073880;28;20346;-39
2021/07/05 03:12:03;;;;;;;5.13;2.60;;;;;;;15.02;88.10;100904.38;5073520;28;20040;-40
2021/07/05 03:14:28;;;;;;;4.75;2.80;;;;;;;15.02;88.18;100896.22;5073206;28;20258;-40
2021/07/05 03:16:53;;;;;;;5.63;2.70;;;;;;;14.98;88.20;100893.19;5073692;28;20024;-39
2021/07/05 03:19:19;;;;;;;4.77;2.47;;;;;;;14.98;88.36;100876.84;5073681;28;20596;-40
2021/07/05 03:21:44;;;;;;;7.78;2.70;;;;;;;14.95;88.28;100877.38;5073497;28;20469;-40
2021/07/05 03:24:09;;;;;;;4.27;2.67;;;;;;;14.99;88.83;100886.69;5073865;28;20021;-40
2021/07/05 03:26:35;;;;;;;4.35;2.58;;;;;;;14.98;88.61;100890.44;5073367;28;20251;-40
2021/07/05 03:29:00;;;;;;;5.32;2.58;;;;;;;14.94;88.24;100895.63;5075825;28;20031;-40
2021/07/05 03:31:26;;;;;;;4.10;2.60;;;;;;;14.87;87.59;100907.78;5077128;28;20027;-40
2021/07/05 03:33:51;;;;;;;3.85;2.65;;;;;;;14.84;88.54;100897.44;5077000;28;20262;-40
2021/07/05 03:36:16;;;;;;;5.38;2.90;;;;;;;14.87;88.20;100903.16;5077975;28;20029;-40
2021/07/05 03:38:42;;;;;;;5.40;3.10;;;;;;;14.88;87.64;100898.53;5076917;28;20024;-39
2021/07/05 03:41:07;;;;;;;6.95;3.10;;;;;;;14.84;88.05;100902.88;5077787;28;20173;-39
2021/07/05 03:43:32;;;;;;;7.00;2.80;;;;;;;14.86;88.19;100897.97;5076822;28;20016;-40
2021/07/05 03:45:57;;;;;;;4.33;2.63;;;;;;;14.87;87.92;100907.78;5077406;28;20025;-40
2021/07/05 03:48:23;;;;;;;7.07;3.40;;;;;;;14.77;88.12;100888.63;5076646;28;20065;-40
2021/07/05 03:50:49;;;;;;;4.15;2.40;;;;;;;14.75;88.82;100893.53;5077764;28;20131;-40
2021/07/05 03:53:14;;;;;;;3.43;2.43;;;;;;;14.84;88.28;100898.25;5076893;28;20028;-39
2021/07/05 03:55:39;;;;;;;4.38;2.92;;;;;;;14.74;88.18;100886.41;5076881;28;20255;-39
2021/07/05 03:58:06;;;;;;;5.53;3.13;;;;;;;14.72;88.37;100888.59;5077599;28;20035;-40
2021/07/05 04:00:35;;;;;;;4.88;2.88;;;;;;;14.82;88.24;100894.13;5076724;28;20068;-40
2021/07/05 04:03:01;;;;;;;5.07;2.88;;;;;;;14.75;88.15;100888.91;5076906;28;20027;-39
2021/07/05 04:05:27;;;;;;;5.57;3.17;;;;;;;14.75;88.02;100888.09;5076678;28;20107;-40
2021/07/05 04:07:53;;;;;;;7.45;2.80;;;;;;;14.71;88.33;100890.50;5076578;28;20054;-40
2021/07/05 04:10:19;;;;;;;5.43;3.03;;;;;;;14.64;87.69;100888.00;5077124;28;20028;-40
2021/07/05 04:12:44;;;;;;;3.15;2.80;;;;;;;14.61;88.00;100891.22;5076541;28;20039;-40
2021/07/05 04:15:10;;;;;;;5.18;3.53;;;;;;;14.56;88.83;100888.44;5077311;28;20013;-40
2021/07/05 04:17:36;;;;;;;6.53;3.05;;;;;;;14.54;88.93;100887.88;5076269;28;20408;-39
2021/07/05 04:20:06;;;;;;;9.02;4.03;;;;;;;14.52;88.80;100900.09;5076466;28;20067;-40
2021/07/05 04:22:31;;;;;;;5.97;3.20;;;;;;;14.54;88.55;100892.47;5076606;28;20345;-40
2021/07/05 04:24:56;;;;;;;6.17;3.40;;;;;;;14.55;88.46;100900.41;5076153;28;20031;-40
2021/07/05 04:27:21;;;;;;;5.60;3.20;;;;;;;14.55;88.71;100894.97;5075990;28;20028;-40
2021/07/05 04:29:47;;;;;;;7.20;3.80;;;;;;;14.50;88.34;100894.09;5075952;28;20279;-40
2021/07/05 04:32:12;;;;;;;6.13;3.80;;;;;;;14.52;88.60;100895.47;5076226;28;20074;-40
2021/07/05 04:34:37;;;;;;;9.43;4.03;;;;;;;14.43;89.18;100894.25;5076427;28;20255;-40
2021/07/05 04:37:03;;;;;;;6.97;4.00;;;;;;;14.47;89.05;100895.38;5076266;28;20723;-40
2021/07/05 04:39:29;;;;;;;5.57;3.88;;;;;;;14.45;88.93;100899.44;5075715;28;20372;-40
2021/07/05 04:41:55;;;;;;;7.00;4.20;;;;;;;14.39;88.92;100898.53;5076614;28;20032;-40
2021/07/05 04:44:21;;;;;;;7.47;4.40;;;;;;;14.38;89.58;100891.47;5075893;28;20382;-40
2021/07/05 04:46:48;;;;;;;9.05;4.88;;;;;;;14.38;89.74;100892.28;5076443;28;20476;-40
2021/07/05 04:49:17;;;;;;;9.07;4.35;;;;;;;14.36;89.49;100896.34;5075558;28;20435;-40
2021/07/05 04:51:43;;;;;;;12.00;5.57;;;;;;;14.45;89.76;100894.81;5076367;28;20063;-39
2021/07/05 04:54:08;;;;;;;8.57;5.07;;;;;;;14.43;89.59;100891.53;5075720;28;20060;-40
2021/07/05 04:56:34;;;;;;;9.10;4.65;;;;;;;14.49;89.47;100906.84;5075969;28;20027;-40
2021/07/05 04:59:00;;;;;;;7.50;4.93;;;;;;;14.45;89.38;100892.09;5075425;28;20380;-40
2021/07/05 05:01:25;;;;;;;9.05;5.10;;;;;;;14.51;89.05;100887.56;5075959;28;20028;-40
2021/07/05 05:03:50;;;;;;;8.35;4.43;;;;;;;14.42;89.10;100889.88;5076092;28;20433;-40
2021/07/05 05:06:16;;;;;;;8.10;4.38;;;;;;;14.49;89.22;100890.53;5075613;28;20024;-40
2021/07/05 05:08:41;;;;;;;8.33;4.30;;;;;;;14.46;89.50;100882.03;5075803;28;20112;-39
2021/07/05 05:11:06;;;;;;;6.90;4.80;;;;;;;14.55;89.01;100886.81;5075583;28;20626;-40
2021/07/05 05:13:32;;;;;;;7.53;5.15;;;;;;;14.43;88.71;100880.63;5076187;28;20433;-40
2021/07/05 05:15:57;;;;;;;10.73;5.20;;;;;;;14.42;88.87;100884.44;5075618;28;20437;-39
2021/07/05 05:18:23;;;;;;;8.80;4.73;;;;;;;14.43;89.22;100880.63;5075552;28;20337;-39
2021/07/05 05:20:49;;;;;;;9.00;4.63;;;;;;;14.47;89.11;100883.69;5075251;28;20282;-39
2021/07/05 05:23:15;;;;;;;13.95;5.07;;;;;;;14.40;89.29;100876.53;5075171;28;20039;-40
2021/07/05 05:25:40;;;;;;;10.32;4.82;;;;;;;14.40;89.54;100873.81;5075751;28;20024;-39
2021/07/05 05:28:05;;;;;;;9.57;4.93;;;;;;;14.34;89.23;100882.97;5075171;28;20363;-39
2021/07/05 05:30:31;;;;;;;9.80;4.63;;;;;;;14.45;89.55;100878.50;5075874;28;20520;-40
2021/07/05 05:32:56;;;;;;;8.45;4.65;;;;;;;14.40;89.29;100886.63;5074752;28;20099;-40
2021/07/05 05:35:26;;;;;;;7.17;4.83;;;;;;;14.45;89.76;100886.66;5075057;28;20388;-40
2021/07/05 05:37:53;;;;;;;10.18;4.43;;;;;;;14.45;89.43;100883.94;5074535;28;20286;-40
2021/07/05 05:40:20;;;;;;;9.30;4.10;;;;;;;14.45;89.47;100883.94;5074641;28;20052;-40
2021/07/05 05:42:45;;;;;;;8.13;4.65;;;;;;;14.48;89.72;100883.44;5074734;28;20369;-40
2021/07/05 05:45:11;;;;;;;9.70;4.57;;;;;;;14.53;89.88;100877.25;5075074;28;20024;-40
2021/07/05 05:47:36;;;;;;;7.88;4.50;;;;;;;14.64;89.89;100877.09;5074738;28;20035;-40
2021/07/05 05:50:03;;;;;;;6.67;4.17;;;;;;;14.67;90.00;100879.28;5075238;28;20036;-40
2021/07/05 05:52:28;;;;;;;7.78;4.25;;;;;;;14.71;89.15;100876.06;5073922;28;20119;-40
2021/07/05 05:54:54;;;;;;;8.10;4.10;;;;;;;14.67;89.12;100876.56;5074946;28;20048;-40
2021/07/05 05:57:25;;;;;;;6.88;3.83;;;;;;;14.76;89.35;100863.31;5074713;28;20059;-40
2021/07/05 05:59:53;;;;;;;9.02;4.30;;;;;;;14.74;89.20;100870.94;5075272;28;20074;-40
2021/07/05 06:02:19;;;;;;;9.25;4.90;;;;;;;14.83;89.04;100865.81;5074361;28;20036;-39
2021/07/05 06:04:44;;;;;;;9.65;4.53;;;;;;;14.88;89.31;100865.84;5074099;28;20028;-40
2021/07/05 06:07:10;;;;;;;6.50;3.73;;;;;;;14.89;88.98;100872.97;5074374;28;20053;-39
2021/07/05 06:09:35;;;;;;;9.10;4.53;;;;;;;14.90;88.72;100875.44;5075167;28;20330;-40
2021/07/05 06:12:00;;;;;;;10.40;4.17;;;;;;;14.90;88.70;100871.88;5074261;28;20414;-40
2021/07/05 06:14:26;;;;;;;12.00;4.75;;;;;;;14.93;88.91;100865.91;5074511;28;20794;-40
2021/07/05 06:16:51;;;;;;;7.20;4.07;;;;;;;14.90;88.80;100869.16;5074109;28;20111;-40
2021/07/05 06:19:16;;;;;;;9.20;4.10;;;;;;;14.99;88.77;100880.41;5074713;28;20412;-40
2021/07/05 06:21:41;;;;;;;8.27;3.67;;;;;;;14.97;88.38;100883.38;5074842;28;20127;-40
2021/07/05 06:24:07;;;;;;;7.37;3.50;;;;;;;14.98;88.05;100887.72;5074220;28;20269;-40
2021/07/05 06:26:32;;;;;;;7.00;3.55;;;;;;;15.03;88.72;100887.81;5074587;28;20024;-40
2021/07/05 06:28:58;;;;;;;12.83;4.50;;;;;;;15.03;88.78;100873.34;5073971;28;20025;-40
2021/07/05 06:31:23;;;;;;;9.00;3.30;;;;;;;15.09;88.24;100878.59;5074053;28;20278;-40
2021/07/05 06:33:49;;;;;;;10.63;3.53;;;;;;;15.12;88.02;100883.50;5074683;28;20262;-40
2021/07/05 06:36:14;;;;;;;9.10;3.67;;;;;;;15.12;88.03;100882.69;5074125;28;20516;-40
2021/07/05 06:38:41;;;;;;;5.65;3.42;;;;;;;15.14;87.59;100886.78;5073868;28;20047;-40
2021/07/05 06:41:06;;;;;;;9.90;3.55;;;;;;;15.17;87.96;100890.88;5074115;28;20032;-40
2021/07/05 06:43:32;;;;;;;7.40;3.50;;;;;;;15.22;88.10;100881.94;5073834;28;20027;-40
2021/07/05 06:45:57;;;;;;;8.10;3.92;;;;;;;15.22;88.31;100890.09;5073873;28;20032;-40
2021/07/05 06:48:22;;;;;;;6.22;3.10;;;;;;;15.26;87.93;100889.31;5073738;28;20020;-40
2021/07/05 06:50:48;;;;;;;7.78;3.72;;;;;;;15.28;87.45;100880.91;5073706;28;20385;-40
2021/07/05 06:53:13;;;;;;;5.85;3.22;;;;;;;15.34;88.14;100886.13;5073719;28;20099;-40
2021/07/05 06:55:39;;;;;;;10.88;3.50;;;;;;;15.36;87.79;100888.59;5073713;28;20354;-40
2021/07/05 06:58:04;;;;;;;8.82;3.33;;;;;;;15.38;87.86;100898.16;5073612;28;20028;-40
2021/07/05 07:00:30;;;;;;;5.05;3.58;;;;;;;15.46;87.03;100894.91;5073690;28;20027;-39
2021/07/05 07:02:57;;;;;;;4.68;3.30;;;;;;;15.49;87.99;100898.22;5073270;28;20020;-40
2021/07/05 07:05:24;;;;;;;7.63;3.42;;;;;;;15.49;86.70;100893.59;5073638;28;20024;-40
2021/07/05 07:07:52;;;;;;;8.10;3.70;;;;;;;15.52;86.84;100890.34;5073205;28;20031;-40
2021/07/05 07:10:19;;;;;;;10.55;4.07;;;;;;;15.56;86.28;100893.34;5074319;28;20341;-40
2021/07/05 07:12:48;;;;;;;7.45;3.70;;;;;;;15.57;86.62;100895.84;5073816;28;20016;-40
2021/07/05 07:15:18;;;;;;;10.13;3.30;;;;;;;15.58;86.46;100897.47;5073488;28;20395;-40
2021/07/05 07:20:17;;;;;;;6.22;3.30;;;;;;;15.60;87.61;100900.75;5072002;28;20123;-40
2021/07/05 07:22:43;;;;;;;6.47;3.65;;;;;;;15.59;87.54;100904.56;5073771;28;20395;-40
2021/07/05 07:25:11;;;;;;;4.22;3.67;;;;;;;15.69;87.10;100912.00;5073399;28;20017;-40
2021/07/05 07:27:36;;;;;;;8.55;3.45;;;;;;;15.67;86.84;100906.81;5074126;28;20352;-40
2021/07/05 07:30:05;;;;;;;5.57;3.55;;;;;;;15.72;86.22;100910.69;5073320;28;20112;-40
2021/07/05 07:32:31;;;;;;;8.05;3.92;;;;;;;15.65;86.22;100905.44;5073291;28;20025;-40
2021/07/05 07:34:57;;;;;;;;;;;;;;;15.79;86.23;100913.97;5073489;28;20025;-40
2021/07/05 07:37:22;;;;;;;10.15;4.20;;;;;;;15.70;87.09;100911.72;5073143;28;20333;-40
2021/07/05 07:39:55;;;;;;;8.85;3.70;;;;;;;15.78;86.90;100917.78;5072977;28;20409;-40
2021/07/05 07:42:20;;;;;;;6.70;3.42;;;;;;;15.81;86.67;100918.09;5073770;28;20399;-40
2021/07/05 07:44:45;;;;;;;9.93;3.90;;;;;;;15.77;86.61;100927.06;5073575;28;20025;-40
2021/07/05 07:47:11;;;;;;;7.60;3.70;;;;;;;15.80;86.52;100918.34;5073160;28;20793;-40
2021/07/05 07:49:37;;;;;;;5.32;3.85;;;;;;;15.83;86.50;100928.72;5073398;28;20635;-40
2021/07/05 07:52:03;;;;;;;7.13;3.90;;;;;;;15.87;85.99;100929.84;5073294;28;20028;-40
2021/07/05 07:54:28;;;;;;;8.63;3.88;;;;;;;15.88;87.34;100928.75;5073923;28;20129;-40
2021/07/05 07:56:54;;;;;;;10.70;4.20;;;;;;;15.93;86.72;100926.06;5073084;28;20504;-40
2021/07/05 07:59:20;;;;;;;6.20;3.55;;;;;;;15.96;86.51;100926.34;5073060;28;20372;-40
2021/07/05 08:01:46;;;;;;;7.63;4.30;;;;;;;16.01;86.29;100924.75;5073332;28;20062;-40
2021/07/05 08:04:12;;;;;;;8.60;3.70;;;;;;;16.09;87.33;100926.94;5073016;28;20021;-40
2021/07/05 08:06:38;;;;;;;6.35;4.00;;;;;;;16.15;85.08;100920.41;5073245;28;20043;-40
2021/07/05 08:09:06;;;;;;;7.63;3.90;;;;;;;16.14;86.13;100927.78;5072752;28;20452;-40
2021/07/05 08:11:32;;;;;;;7.45;3.70;;;;;;;16.17;85.24;100929.19;5073244;28;20254;-40
2021/07/05 08:14:05;;;;;;;8.43;3.50;;;;;;;16.22;85.56;100929.19;5073391;28;20036;-40
2021/07/05 08:16:31;;;;;;;5.13;3.70;;;;;;;16.24;84.74;100921.56;5076987;28;20354;-40
2021/07/05 08:18:57;;;;;;;9.95;4.35;;;;;;;16.26;85.22;100921.31;5076681;28;20021;-40
2021/07/05 08:21:23;;;;;;;;;;;;;;;16.42;85.44;100920.25;5077306;28;20045;-40
2021/07/05 08:23:49;;;;;;;9.48;4.28;;;;;;;16.30;83.72;100925.13;5076268;28;20252;-40
2021/07/05 08:26:14;;;;;;;;;;;;;;;16.43;84.63;100932.81;5076715;28;20020;-40
2021/07/05 08:28:40;;;;;;;6.87;4.30;;;;;;;16.32;84.39;100936.59;5076299;28;19908;-40
2021/07/05 08:31:07;;;;;;;5.97;3.42;;;;;;;16.34;84.43;100926.22;5076764;28;20587;-40
2021/07/05 08:33:33;;;;;;;7.57;4.35;;;;;;;16.43;84.93;100930.91;5076449;28;20032;-40
2021/07/05 08:35:59;;;;;;;10.10;4.45;;;;;;;16.44;84.36;100937.19;5075864;28;20033;-40
2021/07/05 08:38:25;;;;;;;8.95;4.63;;;;;;;16.59;84.95;100933.69;5076615;28;20085;-40
2021/07/05 08:40:51;;;;;;;8.15;4.38;;;;;;;16.61;85.00;100934.25;5076046;28;20039;-40
2021/07/05 08:43:19;;;;;;;9.25;4.55;;;;;;;16.70;84.35;100935.38;5075727;28;20024;-40
2021/07/05 08:45:46;;;;;;;9.13;4.22;;;;;;;16.79;84.52;100938.41;5075986;28;20039;-40
2021/07/05 08:48:13;;;;;;;9.15;4.20;;;;;;;16.80;84.27;100937.31;5075874;28;20032;-40
2021/07/05 08:50:41;;;;;;;8.55;5.15;;;;;;;16.78;83.75;100929.38;5075592;28;20020;-40
2021/07/05 08:53:06;;;;;;;4.80;4.13;;;;;;;16.83;82.76;100923.13;5076069;28;20376;-40
2021/07/05 08:55:32;;;;;;;9.70;4.13;;;;;;;16.91;82.43;100920.69;5076061;28;20028;-40
2021/07/05 08:57:57;;;;;;;;;;;;;;;17.10;82.79;100929.16;5076400;28;20470;-40
2021/07/05 09:00:25;;;;;;;7.45;4.07;;;;;;;17.01;82.09;100929.97;5075937;28;19915;-40
2021/07/05 09:02:51;;;;;;;7.25;4.15;;;;;;;17.12;82.16;100926.97;5075558;28;20023;-40
2021/07/05 09:05:17;;;;;;;9.32;4.45;;;;;;;17.14;82.76;100918.53;5076430;28;20020;-40
2021/07/05 09:08:03;;;;;;;5.47;4.07;;;;;;;17.21;82.15;100917.13;5075502;28;20051;-40
2021/07/05 09:10:47;;;;;;;8.73;4.15;;;;;;;17.21;82.03;100919.88;5075793;28;20036;-40
2021/07/05 09:13:34;;;;;;;7.72;4.10;;;;;;;17.29;82.24;100926.72;5076006;28;20021;-40
2021/07/05 09:16:01;;;;;;;8.13;4.65;;;;;;;17.22;81.11;100932.44;5075204;28;20094;-40
2021/07/05 09:18:31;;;;;;;6.55;4.53;;;;;;;17.16;82.19;100932.72;5075591;28;20060;-40
2021/07/05 09:21:09;;;;;;;7.22;4.35;;;;;;;17.19;82.14;100932.19;5075424;28;20056;-40
2021/07/05 09:23:35;;;;;;;8.25;4.30;;;;;;;17.12;81.52;100932.44;5075161;28;20028;-40
2021/07/05 09:26:02;;;;;;;;;;;;;;;17.24;81.19;100927.53;5074732;28;20028;-40
2021/07/05 09:28:28;;;;;;;;;;;;;;;17.30;81.84;100927.53;5075162;28;20360;-40
2021/07/05 09:30:59;;;;;;;11.60;4.97;;;;;;;17.15;81.26;100931.09;5074791;28;19999;-40
2021/07/05 09:33:27;;;;;;;10.13;4.65;;;;;;;17.08;80.80;100930.50;5075083;28;20263;-40
2021/07/05 09:35:58;;;;;;;9.85;4.43;;;;;;;17.07;81.26;100928.88;5074975;28;20040;-40
2021/07/05 09:38:42;;;;;;;10.52;4.90;;;;;;;17.15;82.09;100934.63;5075684;28;20070;-40
2021/07/05 09:41:19;;;;;;;7.65;4.00;;;;;;;17.21;82.24;100930.00;5075105;28;20025;-39
2021/07/05 09:43:46;;;;;;;8.27;3.88;;;;;;;17.18;80.50;100934.09;5074835;28;20085;-40
2021/07/05 09:46:13;;;;;;;9.77;3.80;;;;;;;17.16;81.02;100928.06;5074442;28;20028;-39
2021/07/05 09:48:47;;;;;;;8.00;4.05;;;;;;;17.19;81.40;100934.91;5075504;28;20447;-39
2021/07/05 09:51:18;;;;;;;8.82;4.53;;;;;;;17.10;81.35;100937.38;5074703;28;20025;-40
2021/07/05 09:53:44;;;;;;;9.45;3.95;;;;;;;17.11;80.24;100936.25;5074887;28;20020;-39
2021/07/05 09:56:27;;;;;;;9.30;3.80;;;;;;;17.19;82.35;100933.00;5074167;28;20021;-39
2021/07/05 09:58:58;;;;;;;7.57;3.67;;;;;;;17.23;83.52;100934.09;5074451;28;20025;-39
2021/07/05 10:01:54;;;;;;;8.63;3.92;;;;;;;17.18;81.87;100931.38;5074754;28;20047;-39
2021/07/05 10:04:23;;;;;;;6.53;3.03;;;;;;;17.08;81.59;100935.97;5073443;28;20080;-39
2021/07/05 10:06:50;;;;;;;8.20;3.17;;;;;;;17.10;80.79;100929.16;5075150;28;20028;-39
2021/07/05 10:09:34;;;;;;;7.90;3.00;;;;;;;17.13;81.46;100935.97;5074376;28;20024;-39
2021/07/05 10:12:29;;;;;;;7.32;3.13;;;;;;;16.94;81.23;100938.44;5074861;28;20028;-39
2021/07/05 10:15:03;;;;;;;6.50;3.47;;;;;;;16.84;82.72;100943.91;5074455;28;20021;-39
2021/07/05 10:17:32;;;;;;;7.32;3.25;;;;;;;16.73;82.68;100935.66;5074881;28;20029;-39
2021/07/05 10:19:58;;;;;;;7.80;3.90;;;;;;;16.85;82.85;100932.69;5074460;28;20028;-40
2021/07/05 10:22:24;;;;;;;5.18;3.40;;;;;;;16.95;83.42;100937.34;5074996;28;20024;-39
2021/07/05 10:24:50;;;;;;;;;;;;;;;17.14;82.57;100933.00;5074174;28;20029;-39
2021/07/05 10:27:15;;;;;;;6.65;3.38;;;;;;;17.11;83.46;100940.91;5074314;28;19908;-39
2021/07/05 10:29:42;;;;;;;;;;;;;;;17.17;82.75;100937.09;5074413;28;20481;-40
2021/07/05 10:32:09;;;;;;;6.85;3.42;;;;;;;16.79;81.26;100933.78;5074257;28;20303;-40
2021/07/05 10:34:36;;;;;;;6.93;2.83;;;;;;;16.63;82.55;100946.53;5073978;28;20028;-40
2021/07/05 10:37:05;;;;;;;4.63;2.58;;;;;;;16.57;81.78;100942.16;5074384;28;20108;-40
2021/07/05 10:39:32;;;;;;;6.68;2.38;;;;;;;16.61;82.16;100939.72;5073815;28;20043;-40
2021/07/05 10:41:58;;;;;;;4.45;2.47;;;;;;;16.59;82.41;100941.88;5074410;28;20372;-40
2021/07/05 10:44:41;;;;;;;4.13;2.72;;;;;;;16.70;83.52;100938.91;5074016;28;20027;-40
2021/07/05 10:47:06;;;;;;;6.25;3.55;;;;;;;16.68;84.16;100938.34;5073873;28;20107;-40
2021/07/05 10:49:32;;;;;;;6.28;3.88;;;;;;;16.79;84.28;100930.19;5073688;28;20099;-40
2021/07/05 10:52:16;;;;;;;6.63;3.50;;;;;;;16.88;83.90;100939.50;5074585;28;20525;-40
2021/07/05 10:54:55;;;;;;;4.22;2.60;;;;;;;16.86;83.13;100938.97;5073871;28;20619;-40
2021/07/05 10:57:29;;;;;;;4.97;2.70;;;;;;;16.96;83.77;100928.88;5074348;28;20025;-40
2021/07/05 10:59:54;;;;;;;3.53;2.40;;;;;;;16.96;82.04;100925.31;5073611;28;20028;-40
2021/07/05 11:02:38;;;;;;;5.28;2.58;;;;;;;17.15;83.03;100933.81;5074423;28;20050;-40
2021/07/05 11:05:25;;;;;;;3.70;1.98;;;;;;;17.14;80.07;100935.72;5073202;28;20492;-40
2021/07/05 11:07:52;;;;;;;3.45;1.73;;;;;;;17.31;79.94;100919.06;5073076;28;20415;-40
2021/07/05 11:10:25;;;;;;;3.08;1.83;;;;;;;17.43;78.15;100927.00;5073430;28;20021;-40
2021/07/05 11:13:02;;;;;;;4.38;1.88;;;;;;;17.49;78.14;100917.69;5073781;28;20031;-40
2021/07/05 11:15:46;;;;;;;4.45;2.35;;;;;;;17.74;78.67;100914.94;5073175;28;20090;-40
2021/07/05 11:18:52;;;;;;;4.13;1.80;;;;;;;17.95;77.97;100917.59;5073569;28;20445;-39
2021/07/05 11:21:23;;;;;;;3.30;1.60;;;;;;;18.06;75.47;100912.94;5069491;28;20147;-40
2021/07/05 11:23:55;;;;;;;3.35;1.48;;;;;;;18.25;76.61;100912.03;5073372;28;20032;-40
2021/07/05 11:26:37;;;;;;;2.80;1.50;;;;;;;18.40;75.21;100913.06;5074164;28;20039;-40
2021/07/05 11:29:14;;;;;;;3.35;1.90;;;;;;;18.65;76.31;100899.22;5073281;28;20074;-40
2021/07/05 11:31:58;;;;;;;2.95;1.50;;;;;;;18.85;74.55;100903.78;5073849;28;20044;-40